Time;durP1;ratioP1;P1;durP2;ratioP2;P2;SDS_P1;SDS_P2;PMS_P1;PMS_P2;Temp;Humidity;BMP_temperature;BMP_pressure;BME280_temperature;BME280_humidity;BME280_pressure;Samples;Min_cycle;Max_cycle;Signal;HPM_P1;HPM_P2
2023/07/23 00:02:35;;;;;;;30.00;17.17;;;;;;;;;;6220620;28;20569;-61
2023/07/23 00:05:35;;;;;;;32.83;17.45;;;;;;;;;;6220450;28;20048;-61
2023/07/23 00:08:36;;;;;;;31.60;17.05;;;;;;;;;;6219177;28;20128;-62
2023/07/23 00:11:36;;;;;;;28.92;16.48;;;;;;;;;;6223699;28;20049;-61
2023/07/23 00:14:37;;;;;;;27.92;16.88;;;;;;;;;;6222287;28;20132;-61
2023/07/23 00:17:39;;;;;;;31.17;17.17;;;;;;;;;;6221623;28;20485;-61
2023/07/23 00:20:39;;;;;;;30.45;16.58;;;;;;;;;;6223450;28;20037;-61
2023/07/23 00:23:40;;;;;;;36.17;18.48;;;;;;;;;;6223764;28;20676;-62
2023/07/23 00:26:41;;;;;;;32.33;17.13;;;;;;;;;;6205005;28;20048;-61
2023/07/23 00:29:41;;;;;;;29.52;17.10;;;;;;;;;;6220920;28;20054;-62
2023/07/23 00:32:42;;;;;;;31.20;17.23;;;;;;;;;;6222697;28;20050;-62
2023/07/23 00:35:42;;;;;;;31.85;18.08;;;;;;;;;;6222334;28;20053;-62
2023/07/23 00:38:43;;;;;;;29.13;16.45;;;;;;;;;;6218821;28;20785;-62
2023/07/23 00:41:43;;;;;;;30.20;17.08;;;;;;;;;;6223180;28;20493;-62
2023/07/23 00:44:44;;;;;;;28.42;17.23;;;;;;;;;;6224314;28;20539;-62
2023/07/23 00:47:45;;;;;;;31.77;16.88;;;;;;;;;;6218363;28;20801;-61
2023/07/23 00:50:46;;;;;;;29.83;16.73;;;;;;;;;;6219212;28;20079;-62
2023/07/23 00:53:48;;;;;;;28.92;15.88;;;;;;;;;;6221370;28;20049;-61
2023/07/23 00:56:50;;;;;;;30.83;16.58;;;;;;;;;;6222539;28;20053;-61
2023/07/23 00:59:50;;;;;;;28.50;16.83;;;;;;;;;;6224311;28;20103;-61
2023/07/23 01:02:51;;;;;;;28.25;15.50;;;;;;;;;;6224271;28;20060;-61
2023/07/23 01:05:53;;;;;;;29.70;18.45;;;;;;;;;;6223944;28;20042;-61
2023/07/23 01:08:55;;;;;;;32.17;18.42;;;;;;;;;;6218558;28;20056;-61
2023/07/23 01:11:57;;;;;;;30.73;18.00;;;;;;;;;;6223342;28;20042;-61
2023/07/23 01:14:58;;;;;;;29.17;17.10;;;;;;;;;;6222054;28;20055;-61
2023/07/23 01:18:01;;;;;;;27.30;16.90;;;;;;;;;;6219480;28;20053;-62
2023/07/23 01:21:02;;;;;;;28.48;17.20;;;;;;;;;;6223463;28;20419;-62
2023/07/23 01:24:03;;;;;;;32.08;16.88;;;;;;;;;;6223614;28;20111;-61
2023/07/23 01:27:05;;;;;;;30.73;18.10;;;;;;;;;;6221599;28;20053;-60
2023/07/23 01:30:08;;;;;;;32.58;18.42;;;;;;;;;;6219818;28;20053;-61
2023/07/23 01:33:09;;;;;;;33.33;17.33;;;;;;;;;;6220539;28;20041;-61
2023/07/23 01:36:11;;;;;;;33.83;17.85;;;;;;;;;;6222411;28;20090;-61
2023/07/23 01:39:12;;;;;;;28.30;17.52;;;;;;;;;;6213815;28;20049;-61
2023/07/23 01:42:12;;;;;;;32.80;18.87;;;;;;;;;;6222396;28;20060;-60
2023/07/23 01:45:13;;;;;;;36.63;18.95;;;;;;;;;;6223737;28;20057;-62
2023/07/23 01:48:15;;;;;;;34.33;18.90;;;;;;;;;;6221418;28;20053;-62
2023/07/23 01:51:16;;;;;;;33.60;18.63;;;;;;;;;;6224322;28;20595;-62
2023/07/23 01:54:16;;;;;;;42.47;22.13;;;;;;;;;;6222874;28;20098;-60
2023/07/23 01:57:17;;;;;;;31.85;18.92;;;;;;;;;;6221680;28;20112;-61
2023/07/23 02:00:19;;;;;;;35.65;19.38;;;;;;;;;;6219361;28;20484;-61
2023/07/23 02:03:19;;;;;;;36.95;18.90;;;;;;;;;;6222138;28;20218;-61
2023/07/23 02:06:20;;;;;;;34.45;19.75;;;;;;;;;;6222196;28;20130;-62
2023/07/23 02:09:21;;;;;;;35.05;20.85;;;;;;;;;;6222079;28;20045;-61
2023/07/23 02:12:21;;;;;;;34.10;20.42;;;;;;;;;;6224698;28;20112;-62
2023/07/23 02:15:22;;;;;;;38.78;21.52;;;;;;;;;;6223745;28;20049;-61
2023/07/23 02:18:22;;;;;;;39.22;20.23;;;;;;;;;;6219419;28;20045;-61
2023/07/23 02:21:23;;;;;;;36.30;20.95;;;;;;;;;;6202822;28;20053;-61
2023/07/23 02:24:24;;;;;;;34.30;20.00;;;;;;;;;;6216344;28;20057;-62
2023/07/23 02:27:25;;;;;;;35.17;20.38;;;;;;;;;;6220457;28;20050;-62
2023/07/23 02:30:27;;;;;;;36.30;19.98;;;;;;;;;;6223524;28;20049;-61
2023/07/23 02:33:27;;;;;;;;;;;;;;;;;;6224564;28;20046;-61
2023/07/23 02:36:28;;;;;;;41.17;21.67;;;;;;;;;;6222602;28;19925;-62
2023/07/23 02:39:30;;;;;;;39.40;22.42;;;;;;;;;;6220802;28;20448;-61
2023/07/23 02:42:30;;;;;;;;;;;;;;;;;;6222118;28;20042;-61
2023/07/23 02:45:31;;;;;;;41.60;22.08;;;;;;;;;;6220233;28;19928;-62
2023/07/23 02:48:31;;;;;;;40.58;22.08;;;;;;;;;;6217424;28;20042;-61
2023/07/23 02:51:32;;;;;;;43.67;22.80;;;;;;;;;;6223323;28;20642;-62
2023/07/23 02:54:33;;;;;;;42.65;22.77;;;;;;;;;;6222299;28;20076;-61
2023/07/23 02:57:34;;;;;;;39.83;22.83;;;;;;;;;;6223941;28;22329;-63
2023/07/23 03:00:34;;;;;;;41.90;23.08;;;;;;;;;;6223136;28;20053;-64
2023/07/23 03:03:38;;;;;;;50.10;24.77;;;;;;;;;;6218993;28;20100;-63
2023/07/23 03:06:38;;;;;;;43.00;24.85;;;;;;;;;;6221429;28;20053;-63
2023/07/23 03:09:39;;;;;;;47.97;25.55;;;;;;;;;;6221402;28;20797;-63
2023/07/23 03:12:40;;;;;;;43.72;25.52;;;;;;;;;;6221645;28;20049;-62
2023/07/23 03:15:41;;;;;;;47.40;24.52;;;;;;;;;;6231276;28;20042;-64
2023/07/23 03:18:41;;;;;;;47.53;24.95;;;;;;;;;;6222968;28;20053;-63
2023/07/23 03:21:42;;;;;;;40.92;23.85;;;;;;;;;;6221363;28;20045;-63
2023/07/23 03:24:43;;;;;;;45.28;24.38;;;;;;;;;;6222109;28;20111;-63
2023/07/23 03:27:44;;;;;;;44.83;25.53;;;;;;;;;;6222970;28;20500;-63
2023/07/23 03:30:45;;;;;;;43.78;24.50;;;;;;;;;;6222275;28;20345;-63
2023/07/23 03:33:45;;;;;;;48.03;26.05;;;;;;;;;;6221625;28;20061;-63
2023/07/23 03:36:46;;;;;;;47.25;25.08;;;;;;;;;;6220704;28;20461;-63
2023/07/23 03:39:46;;;;;;;44.72;24.77;;;;;;;;;;6218856;28;20038;-62
2023/07/23 03:42:47;;;;;;;53.50;27.60;;;;;;;;;;6222015;28;20073;-63
2023/07/23 03:45:47;;;;;;;45.83;24.48;;;;;;;;;;6222316;28;20461;-62
2023/07/23 03:48:48;;;;;;;46.72;25.20;;;;;;;;;;6220955;28;20052;-62
2023/07/23 03:51:49;;;;;;;57.40;28.75;;;;;;;;;;6221149;28;20192;-63
2023/07/23 03:54:49;;;;;;;50.42;28.05;;;;;;;;;;6219897;28;20484;-63
2023/07/23 03:57:50;;;;;;;48.13;26.77;;;;;;;;;;6217319;28;20046;-62
2023/07/23 04:00:50;;;;;;;47.08;25.70;;;;;;;;;;6221061;28;20049;-62
2023/07/23 04:03:51;;;;;;;53.30;27.90;;;;;;;;;;6221466;28;20528;-62
2023/07/23 04:06:51;;;;;;;49.90;27.02;;;;;;;;;;6222886;28;20122;-61
2023/07/23 04:09:54;;;;;;;58.00;28.30;;;;;;;;;;6219845;28;20057;-62
2023/07/23 04:12:54;;;;;;;;;;;;;;;;;;6222919;28;20397;-63
2023/07/23 04:15:55;;;;;;;55.95;28.02;;;;;;;;;;6222035;28;19937;-62
2023/07/23 04:18:55;;;;;;;54.72;27.58;;;;;;;;;;6222063;28;20042;-63
2023/07/23 04:21:56;;;;;;;56.55;29.65;;;;;;;;;;6221890;28;20049;-62
2023/07/23 04:24:56;;;;;;;56.60;29.48;;;;;;;;;;6220355;28;20065;-62
2023/07/23 04:27:57;;;;;;;67.50;30.40;;;;;;;;;;6220850;28;20475;-63
2023/07/23 04:30:57;;;;;;;59.60;31.77;;;;;;;;;;6220184;28;20041;-62
2023/07/23 04:33:59;;;;;;;54.35;30.05;;;;;;;;;;6222774;28;20072;-62
2023/07/23 04:36:59;;;;;;;61.17;30.80;;;;;;;;;;6220418;28;20050;-63
2023/07/23 04:40:00;;;;;;;61.90;32.00;;;;;;;;;;6220934;28;20042;-62
2023/07/23 04:43:00;;;;;;;57.63;30.05;;;;;;;;;;6220401;28;21942;-61
2023/07/23 04:46:03;;;;;;;57.80;30.00;;;;;;;;;;6221383;28;20080;-62
2023/07/23 04:49:05;;;;;;;60.92;29.88;;;;;;;;;;6220310;28;20609;-62
2023/07/23 04:52:06;;;;;;;55.83;29.40;;;;;;;;;;6224544;28;20046;-63
2023/07/23 04:55:08;;;;;;;48.55;28.52;;;;;;;;;;6225137;28;20058;-63
2023/07/23 04:58:08;;;;;;;55.47;27.80;;;;;;;;;;6221517;28;20083;-62
2023/07/23 05:01:11;;;;;;;54.45;26.65;;;;;;;;;;6221934;28;20056;-62
2023/07/23 05:04:12;;;;;;;52.90;26.55;;;;;;;;;;6224715;28;20053;-62
2023/07/23 05:07:13;;;;;;;50.30;26.17;;;;;;;;;;6224986;28;20045;-63
2023/07/23 05:10:14;;;;;;;48.92;25.60;;;;;;;;;;6235368;28;20045;-62
2023/07/23 05:13:15;;;;;;;45.57;25.57;;;;;;;;;;6223144;28;20459;-62
2023/07/23 05:16:15;;;;;;;47.73;24.83;;;;;;;;;;6223647;28;20485;-61
2023/07/23 05:19:16;;;;;;;46.85;23.60;;;;;;;;;;6222146;28;20064;-61
2023/07/23 05:22:17;;;;;;;45.08;23.50;;;;;;;;;;6237061;28;20042;-61
2023/07/23 05:25:17;;;;;;;47.47;23.77;;;;;;;;;;6241351;28;20061;-61
2023/07/23 05:28:18;;;;;;;42.28;23.08;;;;;;;;;;6225701;28;20049;-62
2023/07/23 05:31:18;;;;;;;40.60;21.55;;;;;;;;;;6244516;28;20050;-61
2023/07/23 05:34:19;;;;;;;40.17;22.03;;;;;;;;;;6244901;28;20477;-61
2023/07/23 05:37:20;;;;;;;34.67;20.45;;;;;;;;;;6244060;28;20045;-61
2023/07/23 05:40:21;;;;;;;40.83;21.60;;;;;;;;;;6243271;28;20417;-61
2023/07/23 05:43:22;;;;;;;40.92;21.67;;;;;;;;;;6244861;28;20049;-61
2023/07/23 05:46:23;;;;;;;40.17;21.52;;;;;;;;;;6244094;28;20126;-61
2023/07/23 05:49:24;;;;;;;40.60;20.90;;;;;;;;;;6243203;28;20033;-62
2023/07/23 05:52:25;;;;;;;;;;;;;;;;;;6245118;28;20077;-61
2023/07/23 05:55:25;;;;;;;42.80;21.40;;;;;;;;;;6244150;28;20287;-62
2023/07/23 05:58:27;;;;;;;43.92;21.58;;;;;;;;;;6234564;28;20041;-61
2023/07/23 06:01:27;;;;;;;42.10;22.67;;;;;;;;;;6239128;28;20409;-61
2023/07/23 06:04:28;;;;;;;43.83;22.73;;;;;;;;;;6234091;28;20052;-61
2023/07/23 06:07:29;;;;;;;45.97;23.25;;;;;;;;;;6243239;28;20045;-61
2023/07/23 06:10:30;;;;;;;43.38;22.63;;;;;;;;;;6243141;28;20136;-61
2023/07/23 06:13:31;;;;;;;41.97;24.15;;;;;;;;;;6234665;28;20500;-61
2023/07/23 06:16:32;;;;;;;40.28;21.55;;;;;;;;;;6243302;28;20053;-61
2023/07/23 06:19:32;;;;;;;40.40;22.60;;;;;;;;;;6242940;28;20046;-61
2023/07/23 06:22:33;;;;;;;42.77;21.17;;;;;;;;;;6240886;28;20084;-61
2023/07/23 06:25:33;;;;;;;42.90;22.90;;;;;;;;;;6230821;28;20103;-62
2023/07/23 06:28:34;;;;;;;38.87;22.57;;;;;;;;;;6235291;28;20057;-62
2023/07/23 06:31:34;;;;;;;41.45;21.63;;;;;;;;;;6237755;28;20063;-63
2023/07/23 06:34:35;;;;;;;39.27;20.87;;;;;;;;;;6243347;28;20060;-62
2023/07/23 06:37:36;;;;;;;40.38;20.83;;;;;;;;;;6241668;28;20060;-63
2023/07/23 06:40:37;;;;;;;36.72;19.98;;;;;;;;;;6219379;28;20050;-61
2023/07/23 06:43:37;;;;;;;36.60;19.73;;;;;;;;;;6242185;28;20057;-62
2023/07/23 06:46:38;;;;;;;37.37;19.07;;;;;;;;;;6242500;28;20412;-62
2023/07/23 06:49:38;;;;;;;33.20;17.90;;;;;;;;;;6228908;28;20050;-63
2023/07/23 06:52:39;;;;;;;34.37;18.53;;;;;;;;;;6237973;28;20500;-62
2023/07/23 06:56:03;;;;;;;34.53;17.83;;;;;;;;;;6242142;28;20045;-63
2023/07/23 06:59:04;;;;;;;43.38;18.50;;;;;;;;;;6241005;28;20075;-64
2023/07/23 07:02:06;;;;;;;32.73;17.57;;;;;;;;;;6231731;28;20050;-64
2023/07/23 07:05:07;;;;;;;35.95;18.33;;;;;;;;;;6240084;28;20490;-64
2023/07/23 07:08:08;;;;;;;38.90;17.57;;;;;;;;;;6241301;28;20051;-64
2023/07/23 07:11:10;;;;;;;30.93;16.80;;;;;;;;;;6232309;28;20042;-63
2023/07/23 07:14:10;;;;;;;30.95;17.55;;;;;;;;;;6234541;28;20060;-63
2023/07/23 07:17:11;;;;;;;33.83;16.67;;;;;;;;;;6241906;28;20096;-63
2023/07/23 07:20:11;;;;;;;35.33;16.17;;;;;;;;;;6236105;28;20060;-64
2023/07/23 07:23:12;;;;;;;29.70;16.23;;;;;;;;;;6237865;28;20148;-63
2023/07/23 07:26:12;;;;;;;30.90;16.03;;;;;;;;;;6225190;28;20056;-60
2023/07/23 07:29:13;;;;;;;29.13;14.53;;;;;;;;;;6234568;28;20095;-62
2023/07/23 07:32:14;;;;;;;29.47;14.97;;;;;;;;;;6242499;28;20060;-61
2023/07/23 07:35:14;;;;;;;26.30;15.10;;;;;;;;;;6231338;28;20586;-64
2023/07/23 07:38:15;;;;;;;28.23;14.80;;;;;;;;;;6240622;28;20099;-64
2023/07/23 07:41:15;;;;;;;28.50;15.53;;;;;;;;;;6238292;28;20053;-60
2023/07/23 07:44:16;;;;;;;25.63;14.60;;;;;;;;;;6241381;28;20049;-61
2023/07/23 07:47:17;;;;;;;24.77;14.63;;;;;;;;;;6241784;28;20138;-61
2023/07/23 07:50:17;;;;;;;25.27;14.33;;;;;;;;;;6240006;28;20045;-61
2023/07/23 07:53:18;;;;;;;23.40;14.13;;;;;;;;;;6242378;28;20519;-61
2023/07/23 07:56:19;;;;;;;24.33;14.43;;;;;;;;;;6241933;28;20049;-60
2023/07/23 07:59:20;;;;;;;26.73;14.23;;;;;;;;;;6239795;28;20053;-50
2023/07/23 08:02:21;;;;;;;27.23;14.20;;;;;;;;;;6237468;28;20053;-59
2023/07/23 08:05:23;;;;;;;24.70;14.68;;;;;;;;;;6217727;28;20065;-60
2023/07/23 08:08:26;;;;;;;25.75;14.63;;;;;;;;;;6239823;28;20397;-60
2023/07/23 08:11:27;;;;;;;25.02;14.60;;;;;;;;;;6240038;28;20484;-60
2023/07/23 08:14:29;;;;;;;19.67;13.20;;;;;;;;;;6241522;28;20049;-59
2023/07/23 08:17:29;;;;;;;21.73;13.05;;;;;;;;;;6240793;28;20061;-61
2023/07/23 08:20:32;;;;;;;26.37;14.63;;;;;;;;;;6240136;28;20057;-61
2023/07/23 08:23:35;;;;;;;22.02;12.85;;;;;;;;;;6242981;28;20054;-62
2023/07/23 08:26:39;;;;;;;23.35;13.27;;;;;;;;;;6232074;28;20064;-62
2023/07/23 08:29:44;;;;;;;22.58;12.07;;;;;;;;;;6230479;28;20417;-60
2023/07/23 08:32:46;;;;;;;20.85;12.00;;;;;;;;;;6245240;28;20049;-60
2023/07/23 08:35:46;;;;;;;;;;;;;;;;;;6229576;28;20054;-61
2023/07/23 08:38:47;;;;;;;19.85;10.70;;;;;;;;;;6220984;28;20343;-60
2023/07/23 08:42:14;;;;;;;19.33;11.25;;;;;;;;;;6220349;28;20133;-62
2023/07/23 08:45:22;;;;;;;20.02;11.70;;;;;;;;;;6221115;28;20057;-60
2023/07/23 08:48:49;;;;;;;21.85;11.82;;;;;;;;;;6221152;28;20374;-61
2023/07/23 08:51:49;;;;;;;20.10;10.90;;;;;;;;;;6220749;28;20045;-61
2023/07/23 08:54:50;;;;;;;18.70;10.63;;;;;;;;;;6220061;28;20050;-60
2023/07/23 08:57:51;;;;;;;18.53;10.23;;;;;;;;;;6245730;28;20049;-61
2023/07/23 09:00:52;;;;;;;15.17;8.63;;;;;;;;;;6245178;28;20052;-61
2023/07/23 09:03:52;;;;;;;17.67;8.23;;;;;;;;;;6244779;28;20054;-60
2023/07/23 09:06:56;;;;;;;15.17;8.47;;;;;;;;;;6240209;28;20811;-60
2023/07/23 09:09:58;;;;;;;12.05;7.10;;;;;;;;;;6220429;28;20325;-61
2023/07/23 09:12:59;;;;;;;17.55;7.85;;;;;;;;;;6220027;28;20103;-61
2023/07/23 09:15:59;;;;;;;12.70;7.27;;;;;;;;;;6222260;28;20046;-62
2023/07/23 09:19:00;;;;;;;12.05;7.03;;;;;;;;;;6224375;28;20041;-60
2023/07/23 09:22:05;;;;;;;13.67;6.97;;;;;;;;;;6220329;28;20128;-60
2023/07/23 09:25:06;;;;;;;13.98;7.25;;;;;;;;;;6231052;28;20140;-60
2023/07/23 09:28:06;;;;;;;12.60;6.87;;;;;;;;;;6231945;28;20045;-62
2023/07/23 09:31:09;;;;;;;11.10;6.60;;;;;;;;;;6220071;28;20448;-61
2023/07/23 09:34:09;;;;;;;12.52;6.85;;;;;;;;;;6219179;28;20644;-61
2023/07/23 09:37:10;;;;;;;16.77;8.10;;;;;;;;;;6220457;28;20092;-58
2023/07/23 09:40:11;;;;;;;12.93;6.23;;;;;;;;;;6220290;28;20052;-59
2023/07/23 09:43:12;;;;;;;12.82;7.30;;;;;;;;;;6227120;28;20063;-58
2023/07/23 09:46:12;;;;;;;13.10;6.20;;;;;;;;;;6225084;28;20046;-62
2023/07/23 09:49:13;;;;;;;12.05;6.38;;;;;;;;;;6220345;28;20481;-58
2023/07/23 09:52:14;;;;;;;13.93;6.50;;;;;;;;;;6219817;28;20056;-58
2023/07/23 09:55:14;;;;;;;12.77;6.13;;;;;;;;;;6221693;28;20054;-60
2023/07/23 09:58:17;;;;;;;11.80;6.70;;;;;;;;;;6228416;28;20911;-58
2023/07/23 10:01:19;;;;;;;14.43;6.57;;;;;;;;;;6218988;28;20037;-57
2023/07/23 10:04:22;;;;;;;14.25;6.47;;;;;;;;;;6217568;28;20402;-60
2023/07/23 10:07:24;;;;;;;13.40;6.28;;;;;;;;;;6219579;28;20096;-61
2023/07/23 10:10:25;;;;;;;11.30;6.18;;;;;;;;;;6218999;28;20046;-60
2023/07/23 10:13:25;;;;;;;11.20;5.77;;;;;;;;;;6218564;28;20041;-60
2023/07/23 10:16:37;;;;;;;12.47;6.03;;;;;;;;;;6218342;28;20038;-60
2023/07/23 10:19:41;;;;;;;11.60;5.95;;;;;;;;;;6227388;28;20378;-61
2023/07/23 10:22:45;;;;;;;12.82;6.13;;;;;;;;;;6232099;28;20136;-59
2023/07/23 10:25:46;;;;;;;13.32;6.63;;;;;;;;;;6242083;28;20136;-60
2023/07/23 10:28:48;;;;;;;10.17;5.97;;;;;;;;;;6226885;28;20049;-60
2023/07/23 10:31:48;;;;;;;11.95;6.20;;;;;;;;;;6243598;28;20392;-60
2023/07/23 10:34:49;;;;;;;11.77;5.90;;;;;;;;;;6236164;28;20302;-61
2023/07/23 10:38:19;;;;;;;10.45;6.18;;;;;;;;;;6241177;28;20072;-61
2023/07/23 10:41:50;;;;;;;10.82;6.10;;;;;;;;;;6223319;28;20045;-61
2023/07/23 10:45:23;;;;;;;12.77;6.28;;;;;;;;;;6241145;28;20502;-59
2023/07/23 10:48:23;;;;;;;11.20;5.85;;;;;;;;;;6242602;28;20377;-60
2023/07/23 10:51:25;;;;;;;11.17;5.77;;;;;;;;;;6242074;28;20050;-60
2023/07/23 10:54:25;;;;;;;14.32;6.13;;;;;;;;;;6243127;28;20289;-61
2023/07/23 10:57:26;;;;;;;12.00;6.27;;;;;;;;;;6243244;28;20037;-61
2023/07/23 11:00:27;;;;;;;12.02;6.10;;;;;;;;;;6218171;28;20654;-61
2023/07/23 11:03:28;;;;;;;12.43;5.80;;;;;;;;;;6217870;28;20121;-60
2023/07/23 11:06:30;;;;;;;11.73;5.77;;;;;;;;;;6218088;28;20054;-60
2023/07/23 11:09:37;;;;;;;11.65;6.00;;;;;;;;;;6217482;28;20667;-61
2023/07/23 11:12:37;;;;;;;9.68;5.20;;;;;;;;;;6217301;28;20125;-60
2023/07/23 11:15:39;;;;;;;10.90;5.50;;;;;;;;;;6218309;28;20046;-60
2023/07/23 11:18:42;;;;;;;13.32;5.68;;;;;;;;;;6218173;28;20049;-60
2023/07/23 11:21:49;;;;;;;11.73;6.10;;;;;;;;;;6216475;28;20095;-60
2023/07/23 11:24:50;;;;;;;11.60;5.93;;;;;;;;;;6228590;28;20114;-60
2023/07/23 11:27:50;;;;;;;13.77;5.87;;;;;;;;;;6224278;28;20116;-61
2023/07/23 11:30:55;;;;;;;12.33;5.60;;;;;;;;;;6217998;28;20057;-61
2023/07/23 11:33:58;;;;;;;12.10;4.97;;;;;;;;;;6226224;28;20041;-60
2023/07/23 11:36:58;;;;;;;13.73;5.53;;;;;;;;;;6214400;28;20060;-60
2023/07/23 11:40:00;;;;;;;9.93;5.35;;;;;;;;;;6224351;28;20507;-61
2023/07/23 11:43:07;;;;;;;10.43;5.50;;;;;;;;;;6219849;28;20068;-60
2023/07/23 11:46:07;;;;;;;10.13;5.55;;;;;;;;;;6222105;28;20052;-60
2023/07/23 11:49:10;;;;;;;10.80;5.17;;;;;;;;;;6222361;28;21327;-60
2023/07/23 11:52:11;;;;;;;10.02;5.15;;;;;;;;;;6221875;28;20046;-60
2023/07/23 11:55:42;;;;;;;10.77;5.20;;;;;;;;;;6217058;28;20069;-64
2023/07/23 11:58:43;;;;;;;12.90;5.68;;;;;;;;;;6216475;28;20045;-61
2023/07/23 12:01:43;;;;;;;9.07;5.03;;;;;;;;;;6223800;28;20952;-61
2023/07/23 12:04:44;;;;;;;11.45;5.53;;;;;;;;;;6223739;28;20054;-57
2023/07/23 12:07:45;;;;;;;9.70;5.13;;;;;;;;;;6221552;28;20046;-61
2023/07/23 12:10:45;;;;;;;;;;;;;;;;;;6223597;28;20057;-61
2023/07/23 12:13:51;;;;;;;9.50;5.60;;;;;;;;;;6219106;28;20301;-60
2023/07/23 12:16:56;;;;;;;9.05;5.00;;;;;;;;;;6223361;28;20799;-62
2023/07/23 12:19:56;;;;;;;11.90;5.70;;;;;;;;;;6218442;28;20404;-60
2023/07/23 12:23:00;;;;;;;9.67;5.30;;;;;;;;;;6218623;28;20052;-61
2023/07/23 12:26:00;;;;;;;12.07;5.00;;;;;;;;;;6222335;28;20313;-60
2023/07/23 12:29:01;;;;;;;11.40;5.53;;;;;;;;;;6222798;28;20508;-61
2023/07/23 12:32:16;;;;;;;9.43;5.13;;;;;;;;;;6221872;28;21411;-61
2023/07/23 12:35:17;;;;;;;12.02;5.82;;;;;;;;;;6218516;28;20073;-61
2023/07/23 12:38:18;;;;;;;11.48;5.60;;;;;;;;;;6225621;28;20091;-62
2023/07/23 12:41:18;;;;;;;10.70;5.40;;;;;;;;;;6216342;28;20087;-62
2023/07/23 12:44:19;;;;;;;10.70;5.30;;;;;;;;;;6216562;28;21509;-62
2023/07/23 12:47:20;;;;;;;8.30;4.85;;;;;;;;;;6213959;28;20965;-61
2023/07/23 12:50:21;;;;;;;12.85;5.45;;;;;;;;;;6218573;28;20061;-60
2023/07/23 12:53:21;;;;;;;10.27;5.47;;;;;;;;;;6218406;28;20130;-61
2023/07/23 12:56:22;;;;;;;11.57;5.60;;;;;;;;;;6213889;28;20045;-61
2023/07/23 12:59:23;;;;;;;10.32;5.28;;;;;;;;;;6223062;28;20060;-61
2023/07/23 13:02:23;;;;;;;12.23;5.50;;;;;;;;;;6221544;28;20053;-61
2023/07/23 13:05:24;;;;;;;9.43;5.15;;;;;;;;;;6218252;28;20315;-61
2023/07/23 13:08:24;;;;;;;9.03;5.00;;;;;;;;;;6219547;28;20046;-61
2023/07/23 13:11:25;;;;;;;11.80;5.60;;;;;;;;;;6224160;28;20184;-62
2023/07/23 13:14:25;;;;;;;10.50;5.80;;;;;;;;;;6221373;28;20481;-61
2023/07/23 13:17:26;;;;;;;11.02;5.30;;;;;;;;;;6222858;28;20413;-62
2023/07/23 13:20:27;;;;;;;11.70;5.30;;;;;;;;;;6204456;28;20481;-61
2023/07/23 13:23:27;;;;;;;9.90;5.20;;;;;;;;;;6223190;28;20760;-62
2023/07/23 13:26:28;;;;;;;11.82;5.57;;;;;;;;;;6216872;28;20042;-61
2023/07/23 13:29:29;;;;;;;11.23;5.68;;;;;;;;;;6220318;28;20045;-61
2023/07/23 13:32:29;;;;;;;10.30;5.50;;;;;;;;;;6221392;28;20054;-61
2023/07/23 13:35:30;;;;;;;11.60;5.72;;;;;;;;;;6219896;28;20053;-62
2023/07/23 13:38:30;;;;;;;13.87;5.80;;;;;;;;;;6223309;28;20041;-62
2023/07/23 13:41:31;;;;;;;12.25;5.38;;;;;;;;;;6223841;28;20045;-62
2023/07/23 13:44:32;;;;;;;11.17;5.97;;;;;;;;;;6217876;28;20061;-60
2023/07/23 13:47:33;;;;;;;11.60;5.07;;;;;;;;;;6221165;28;20099;-61
2023/07/23 13:50:33;;;;;;;13.33;5.33;;;;;;;;;;6224749;28;20057;-60
2023/07/23 13:53:34;;;;;;;11.65;5.82;;;;;;;;;;6224078;28;20112;-61
2023/07/23 13:56:35;;;;;;;12.53;5.53;;;;;;;;;;6219136;28;20061;-60
2023/07/23 13:59:36;;;;;;;10.80;5.88;;;;;;;;;;6225065;28;20041;-60
2023/07/23 14:02:42;;;;;;;12.70;5.70;;;;;;;;;;6225734;28;20050;-60
2023/07/23 14:05:43;;;;;;;12.80;5.75;;;;;;;;;;6216230;28;20080;-60
2023/07/23 14:08:43;;;;;;;9.43;5.33;;;;;;;;;;6222673;28;20058;-60
2023/07/23 14:11:44;;;;;;;11.25;5.57;;;;;;;;;;6223487;28;20053;-59
2023/07/23 14:14:45;;;;;;;11.67;5.00;;;;;;;;;;6218251;28;20103;-61
2023/07/23 14:17:45;;;;;;;11.68;5.70;;;;;;;;;;6220020;28;20046;-61
2023/07/23 14:20:46;;;;;;;9.43;5.37;;;;;;;;;;6224471;28;20049;-59
2023/07/23 14:23:47;;;;;;;11.65;5.47;;;;;;;;;;6222162;28;20065;-60
2023/07/23 14:26:47;;;;;;;11.47;5.73;;;;;;;;;;6221978;28;20100;-61
2023/07/23 14:29:48;;;;;;;11.75;6.03;;;;;;;;;;6220151;28;20053;-61
2023/07/23 14:32:49;;;;;;;11.45;5.53;;;;;;;;;;6223824;28;20465;-61
2023/07/23 14:35:53;;;;;;;9.25;5.20;;;;;;;;;;6218696;28;20049;-61
2023/07/23 14:38:54;;;;;;;12.30;5.78;;;;;;;;;;6224514;28;20045;-63
2023/07/23 14:41:54;;;;;;;9.52;5.20;;;;;;;;;;6223825;28;20108;-62
2023/07/23 14:44:55;;;;;;;10.73;5.70;;;;;;;;;;6219804;28;20992;-65
2023/07/23 14:47:55;;;;;;;12.77;6.05;;;;;;;;;;6224203;28;20128;-62
2023/07/23 14:50:56;;;;;;;12.57;5.50;;;;;;;;;;6224671;28;20060;-63
2023/07/23 14:53:57;;;;;;;10.93;5.45;;;;;;;;;;6219581;28;20490;-62
2023/07/23 14:56:57;;;;;;;12.33;6.13;;;;;;;;;;6215626;28;20045;-61
2023/07/23 14:59:58;;;;;;;10.57;5.68;;;;;;;;;;6221045;28;20489;-62
2023/07/23 15:02:58;;;;;;;11.70;6.07;;;;;;;;;;6218789;28;20056;-62
2023/07/23 15:05:59;;;;;;;11.15;5.78;;;;;;;;;;6220661;28;20057;-62
2023/07/23 15:09:00;;;;;;;11.53;5.63;;;;;;;;;;6221358;28;20401;-60
2023/07/23 15:12:01;;;;;;;10.15;5.18;;;;;;;;;;6220811;28;20883;-63
2023/07/23 15:15:01;;;;;;;11.65;5.72;;;;;;;;;;6213429;28;20046;-65
2023/07/23 15:18:02;;;;;;;;;;;;;;;;;;6219179;28;20059;-64
2023/07/23 15:21:03;;;;;;;11.07;5.50;;;;;;;;;;6219437;28;19933;-64
2023/07/23 15:24:04;;;;;;;11.43;6.13;;;;;;;;;;6215259;28;20076;-64
2023/07/23 15:27:07;;;;;;;11.40;6.07;;;;;;;;;;6218383;28;20803;-65
2023/07/23 15:30:08;;;;;;;18.27;6.13;;;;;;;;;;6223792;28;20234;-61
2023/07/23 15:33:09;;;;;;;11.80;5.38;;;;;;;;;;6226908;28;20046;-60
2023/07/23 15:36:10;;;;;;;;;;;;;;;;;;6219374;28;20132;-61
2023/07/23 15:39:10;;;;;;;10.23;5.63;;;;;;;;;;6223242;28;19929;-61
2023/07/23 15:42:11;;;;;;;12.75;5.80;;;;;;;;;;6227144;28;20677;-64
2023/07/23 15:45:12;;;;;;;10.97;5.40;;;;;;;;;;6222457;28;20045;-63
2023/07/23 15:48:12;;;;;;;12.77;5.90;;;;;;;;;;6226525;28;21397;-61
2023/07/23 15:51:13;;;;;;;12.60;6.00;;;;;;;;;;6221787;28;20049;-63
2023/07/23 15:54:14;;;;;;;9.70;5.60;;;;;;;;;;6223679;28;20338;-63
2023/07/23 15:57:14;;;;;;;10.20;5.47;;;;;;;;;;6220157;28;20412;-61
2023/07/23 16:00:15;;;;;;;9.40;5.47;;;;;;;;;;6221830;28;20785;-63
2023/07/23 16:03:15;;;;;;;11.80;5.57;;;;;;;;;;6224922;28;20054;-64
2023/07/23 16:06:16;;;;;;;10.43;5.72;;;;;;;;;;6218759;28;20127;-63
2023/07/23 16:09:17;;;;;;;12.65;5.80;;;;;;;;;;6223627;28;20607;-62
2023/07/23 16:12:18;;;;;;;10.13;5.65;;;;;;;;;;6219055;28;20924;-59
2023/07/23 16:15:20;;;;;;;10.97;6.00;;;;;;;;;;6197106;28;20087;-64
2023/07/23 16:18:21;;;;;;;12.15;5.53;;;;;;;;;;6218543;28;20046;-62
2023/07/23 16:21:22;;;;;;;11.23;6.10;;;;;;;;;;6219635;28;20049;-63
2023/07/23 16:24:23;;;;;;;11.48;5.78;;;;;;;;;;6219904;28;20493;-63
2023/07/23 16:27:28;;;;;;;21.65;6.20;;;;;;;;;;6219017;28;20404;-64
2023/07/23 16:30:29;;;;;;;12.10;6.03;;;;;;;;;;6219778;28;20058;-61
2023/07/23 16:33:30;;;;;;;11.10;5.70;;;;;;;;;;6224542;28;20480;-62
2023/07/23 16:36:33;;;;;;;11.07;6.00;;;;;;;;;;6214881;28;20058;-61
2023/07/23 16:39:34;;;;;;;13.30;5.97;;;;;;;;;;6215559;28;20092;-60
2023/07/23 16:42:38;;;;;;;10.75;5.95;;;;;;;;;;6221265;28;20504;-61
2023/07/23 16:45:38;;;;;;;12.00;6.35;;;;;;;;;;6221039;28;20860;-61
2023/07/23 16:48:39;;;;;;;12.00;6.10;;;;;;;;;;6225293;28;20072;-62
2023/07/23 16:51:40;;;;;;;9.18;5.38;;;;;;;;;;6223379;28;20504;-61
2023/07/23 16:54:40;;;;;;;13.25;6.22;;;;;;;;;;6217463;28;20141;-60
2023/07/23 16:57:42;;;;;;;12.90;6.07;;;;;;;;;;6217378;28;20532;-62
2023/07/23 17:00:43;;;;;;;12.05;6.45;;;;;;;;;;6219109;28;20053;-62
2023/07/23 17:03:43;;;;;;;11.70;5.87;;;;;;;;;;6223309;28;20057;-61
2023/07/23 17:06:44;;;;;;;12.55;6.70;;;;;;;;;;6219239;28;20049;-61
2023/07/23 17:09:45;;;;;;;13.17;6.70;;;;;;;;;;6219322;28;20060;-61
2023/07/23 17:12:46;;;;;;;14.30;7.47;;;;;;;;;;6223561;28;20108;-60
2023/07/23 17:15:47;;;;;;;12.53;6.60;;;;;;;;;;6217158;28;20058;-60
2023/07/23 17:18:48;;;;;;;14.05;7.18;;;;;;;;;;6223381;28;20069;-61
2023/07/23 17:21:48;;;;;;;12.10;6.20;;;;;;;;;;6221504;28;20057;-60
2023/07/23 17:24:49;;;;;;;13.40;6.45;;;;;;;;;;6220793;28;20526;-60
2023/07/23 17:27:49;;;;;;;11.67;6.23;;;;;;;;;;6222839;28;20055;-60
2023/07/23 17:30:59;;;;;;;13.43;6.60;;;;;;;;;;6223828;28;20081;-60
2023/07/23 17:33:59;;;;;;;13.35;6.35;;;;;;;;;;6222422;28;20306;-60
2023/07/23 17:37:00;;;;;;;12.60;6.05;;;;;;;;;;6215919;28;20382;-61
2023/07/23 17:40:01;;;;;;;12.10;6.25;;;;;;;;;;6220771;28;20046;-62
2023/07/23 17:43:02;;;;;;;10.07;5.72;;;;;;;;;;6223002;28;20136;-61
2023/07/23 17:46:02;;;;;;;11.17;6.60;;;;;;;;;;6217323;28;20160;-61
2023/07/23 17:49:03;;;;;;;12.35;6.15;;;;;;;;;;6219199;28;20497;-61